Time;durP1;ratioP1;P1;durP2;ratioP2;P2;SDS_P1;SDS_P2;PMS_P1;PMS_P2;Temp;Humidity;BMP_temperature;BMP_pressure;BME280_temperature;BME280_humidity;BME280_pressure;Samples;Min_cycle;Max_cycle;Signal;HPM_P1;HPM_P2
2022/12/02 00:01:22;;;;;;;50.60;21.50;;;4.80;68.00;;;;;;5071773;28;46702;-66
2022/12/02 00:03:48;;;;;;;53.17;22.57;;;4.90;67.00;;;;;;5069145;28;46479;-70
2022/12/02 00:06:31;;;;;;;50.17;21.57;;;4.90;68.10;;;;;;5067566;27;46131;-67
2022/12/02 00:09:28;;;;;;;45.37;21.07;;;4.90;68.10;;;;;;5051019;28;48048;-68
2022/12/02 00:11:54;;;;;;;63.50;22.70;;;4.90;67.80;;;;;;5062436;28;45954;-67
2022/12/02 00:14:23;;;;;;;44.30;21.60;;;4.90;68.10;;;;;;5069511;28;46601;-68
2022/12/02 00:16:50;;;;;;;54.30;22.20;;;4.90;68.10;;;;;;5067201;28;46469;-69
2022/12/02 00:19:16;;;;;;;64.03;22.13;;;4.90;68.00;;;;;;5060948;28;48029;-68
2022/12/02 00:21:42;;;;;;;50.90;23.10;;;4.90;68.00;;;;;;5070518;28;46407;-68
2022/12/02 00:24:08;;;;;;;55.90;22.70;;;4.90;68.00;;;;;;5066512;28;46387;-68
2022/12/02 00:26:34;;;;;;;50.87;22.20;;;4.90;69.10;;;;;;5068221;28;46362;-68
2022/12/02 00:29:00;;;;;;;49.17;21.70;;;4.90;67.60;;;;;;5069183;28;47321;-67
2022/12/02 00:31:25;;;;;;;48.10;22.83;;;4.90;67.70;;;;;;5070107;27;46466;-67
2022/12/02 00:33:51;;;;;;;56.77;22.60;;;4.80;68.20;;;;;;5073026;28;47085;-68
2022/12/02 00:36:17;;;;;;;51.90;20.67;;;4.80;68.50;;;;;;5072955;28;46378;-69
2022/12/02 00:38:43;;;;;;;47.80;21.30;;;4.60;68.70;;;;;;5067699;28;47999;-67
2022/12/02 00:41:08;;;;;;;49.60;22.33;;;4.60;69.30;;;;;;5064269;28;46401;-70
2022/12/02 00:46:36;;;;;;;52.63;21.20;;;4.50;69.40;;;;;;5069582;28;46432;-67
2022/12/02 00:49:05;;;;;;;52.60;21.17;;;4.60;69.10;;;;;;5067057;27;47507;-68
2022/12/02 00:51:30;;;;;;;53.13;21.75;;;4.60;69.10;;;;;;5070495;28;46400;-67
2022/12/02 00:53:56;;;;;;;54.90;20.37;;;4.60;69.10;;;;;;5069983;28;46383;-68
2022/12/02 00:56:22;;;;;;;50.30;20.50;;;4.50;69.10;;;;;;5068410;28;46625;-70
2022/12/02 00:58:48;;;;;;;48.93;21.00;;;4.60;68.80;;;;;;5070309;28;48181;-67
2022/12/02 01:01:14;;;;;;;49.60;22.00;;;4.70;68.50;;;;;;5052401;28;45968;-66
2022/12/02 01:03:40;;;;;;;48.87;23.07;;;4.70;68.50;;;;;;5068623;27;46439;-67
2022/12/02 01:06:05;;;;;;;51.73;22.40;;;4.70;68.30;;;;;;5067516;28;46284;-67
2022/12/02 01:08:31;;;;;;;49.40;21.47;;;4.80;68.40;;;;;;5067318;28;47917;-67
2022/12/02 01:10:58;;;;;;;48.67;21.00;;;4.80;68.40;;;;;;5070771;28;46332;-68
2022/12/02 01:13:25;;;;;;;51.53;21.93;;;4.80;68.60;;;;;;5066508;28;45897;-70
2022/12/02 01:15:51;;;;;;;44.03;19.40;;;4.80;68.50;;;;;;5068136;28;46633;-67
2022/12/02 01:18:17;;;;;;;54.57;23.97;;;4.80;68.40;;;;;;5069377;28;48108;-68
2022/12/02 01:20:43;;;;;;;48.30;20.53;;;4.80;68.40;;;;;;5051773;28;46410;-67
2022/12/02 01:23:09;;;;;;;50.67;22.27;;;4.80;68.50;;;;;;5067165;28;46436;-67
2022/12/02 01:25:35;;;;;;;44.40;21.80;;;4.90;68.70;;;;;;5067919;28;45985;-67
2022/12/02 01:28:00;;;;;;;50.40;21.93;;;4.90;68.60;;;;;;5069383;28;48201;-70
2022/12/02 01:30:27;;;;;;;52.07;21.90;;;4.80;68.70;;;;;;5066432;28;46385;-66
2022/12/02 01:32:52;;;;;;;54.73;20.73;;;4.80;69.00;;;;;;5070433;28;45929;-68
2022/12/02 01:35:18;;;;;;;55.43;22.27;;;4.80;68.80;;;;;;5070842;28;46244;-67
2022/12/02 01:37:45;;;;;;;48.67;19.63;;;4.70;68.90;;;;;;5067853;28;48053;-67
2022/12/02 01:40:11;;;;;;;48.00;20.93;;;4.70;68.90;;;;;;5070661;28;46717;-67
2022/12/02 01:42:38;;;;;;;47.20;21.20;;;4.70;68.70;;;;;;5066796;28;46362;-69
2022/12/02 01:45:04;;;;;;;65.00;22.67;;;4.70;68.80;;;;;;5068971;28;46715;-70
2022/12/02 01:47:30;;;;;;;52.23;20.10;;;4.60;68.90;;;;;;5063881;28;48909;-70
2022/12/02 01:49:56;;;;;;;42.20;20.80;;;4.60;69.10;;;;;;5070214;27;46671;-68
2022/12/02 01:52:22;;;;;;;50.28;21.23;;;4.50;69.20;;;;;;5068794;28;46441;-69
2022/12/02 01:54:50;;;;;;;54.60;21.10;;;4.60;69.20;;;;;;5056443;28;46641;-69
2022/12/02 01:57:20;;;;;;;48.90;20.60;;;4.60;69.00;;;;;;5062385;28;47698;-66
2022/12/02 01:59:46;;;;;;;49.40;21.80;;;4.60;69.00;;;;;;5068027;28;46472;-68
2022/12/02 02:02:35;;;;;;;51.95;21.08;;;4.60;68.90;;;;;;5069125;28;46560;-69
2022/12/02 02:05:11;;;;;;;50.10;22.07;;;4.70;68.80;;;;;;5066344;28;46373;-70
2022/12/02 02:07:38;;;;;;;54.30;22.20;;;4.60;68.80;;;;;;5052176;28;46313;-68
2022/12/02 02:10:08;;;;;;;47.33;19.55;;;4.60;68.80;;;;;;5063426;28;46502;-68
2022/12/02 02:12:34;;;;;;;50.53;22.42;;;4.60;69.10;;;;;;5051822;28;46391;-68
2022/12/02 02:15:04;;;;;;;54.83;23.43;;;4.60;68.90;;;;;;5062378;28;46543;-66
2022/12/02 02:17:30;;;;;;;50.37;22.70;;;4.60;68.80;;;;;;5063997;28;46456;-68
2022/12/02 02:19:55;;;;;;;53.03;23.73;;;4.60;69.10;;;;;;5062670;28;46516;-68
2022/12/02 02:22:31;;;;;;;53.90;23.23;;;4.60;70.30;;;;;;5067847;28;46389;-66
2022/12/02 02:24:57;;;;;;;65.67;22.40;;;4.50;69.40;;;;;;5065884;28;46373;-69
2022/12/02 02:27:23;;;;;;;46.80;21.83;;;4.40;69.80;;;;;;5064321;28;46815;-66
2022/12/02 02:29:48;;;;;;;44.63;21.00;;;4.30;69.80;;;;;;5064271;28;46439;-67
2022/12/02 02:32:14;;;;;;;46.20;20.23;;;4.40;69.70;;;;;;5068390;28;46402;-69
2022/12/02 02:34:40;;;;;;;55.10;22.10;;;4.40;69.60;;;;;;5066864;28;46529;-68
2022/12/02 02:37:06;;;;;;;48.23;21.23;;;4.40;69.50;;;;;;5070089;28;48099;-68
2022/12/02 02:39:32;;;;;;;50.40;20.77;;;4.50;69.30;;;;;;5065720;28;46746;-69
2022/12/02 02:41:58;;;;;;;54.40;22.30;;;4.50;69.20;;;;;;5071839;28;46364;-67
2022/12/02 02:44:26;;;;;;;58.90;22.97;;;4.50;69.50;;;;;;5064892;28;46397;-68
2022/12/02 02:46:51;;;;;;;53.63;20.83;;;4.40;69.50;;;;;;5051917;28;47864;-69
2022/12/02 02:49:17;;;;;;;53.93;21.57;;;4.50;69.50;;;;;;5064719;28;46512;-68
2022/12/02 02:51:43;;;;;;;47.43;21.90;;;4.40;69.50;;;;;;5065548;28;45898;-68
2022/12/02 02:54:09;;;;;;;49.70;22.13;;;4.50;69.30;;;;;;5065223;28;46334;-68
2022/12/02 02:56:35;;;;;;;48.60;23.00;;;4.50;69.10;;;;;;5071432;28;47974;-67
2022/12/02 02:59:01;;;;;;;47.10;21.77;;;4.60;68.90;;;;;;5069059;28;46736;-67
2022/12/02 03:01:35;;;;;;;49.00;20.05;;;4.50;69.40;;;;;;5066772;28;46349;-67
2022/12/02 03:04:09;;;;;;;51.97;23.00;;;4.50;69.40;;;;;;5061952;28;46604;-68
2022/12/02 03:06:37;;;;;;;47.83;22.07;;;4.60;69.10;;;;;;5064591;28;48630;-66
2022/12/02 03:09:05;;;;;;;51.65;21.95;;;4.70;68.80;;;;;;5065176;28;46381;-68
2022/12/02 03:11:31;;;;;;;54.70;22.63;;;4.50;69.00;;;;;;5061317;28;46510;-67
2022/12/02 03:13:59;;;;;;;59.83;22.97;;;4.50;69.40;;;;;;5066912;28;46050;-67
2022/12/02 03:16:25;;;;;;;58.20;23.10;;;4.40;69.80;;;;;;5067561;28;46423;-69
2022/12/02 03:18:54;;;;;;;59.42;22.95;;;4.40;69.90;;;;;;5064620;28;46700;-68
2022/12/02 03:21:20;;;;;;;50.43;23.50;;;4.40;69.40;;;;;;5053705;28;45993;-68
2022/12/02 03:23:48;;;;;;;57.00;22.60;;;4.40;68.60;;;;;;5060221;28;46597;-67
2022/12/02 03:26:14;;;;;;;58.47;23.23;;;4.40;69.60;;;;;;5065036;28;46566;-67
2022/12/02 03:28:41;;;;;;;54.17;22.15;;;4.50;69.30;;;;;;5064383;28;45904;-67
2022/12/02 03:31:08;;;;;;;50.40;22.48;;;4.50;69.00;;;;;;5069020;28;46335;-68
2022/12/02 03:33:34;;;;;;;58.60;21.93;;;4.40;68.70;;;;;;5069834;28;46286;-67
2022/12/02 03:36:00;;;;;;;55.00;24.33;;;4.40;69.80;;;;;;5068876;28;48204;-66
2022/12/02 03:38:27;;;;;;;54.30;23.20;;;4.30;69.80;;;;;;5066818;27;46425;-69
2022/12/02 03:40:53;;;;;;;53.63;22.77;;;4.40;69.60;;;;;;5065723;28;45857;-67
2022/12/02 03:43:19;;;;;;;54.03;23.00;;;4.50;69.20;;;;;;5067074;28;46251;-68
2022/12/02 03:45:45;;;;;;;57.35;21.80;;;4.60;69.00;;;;;;5065659;28;48747;-67
2022/12/02 03:48:11;;;;;;;60.20;23.87;;;4.60;68.80;;;;;;5068185;28;46274;-68
2022/12/02 03:50:38;;;;;;;49.33;21.47;;;4.60;68.80;;;;;;5069504;28;46753;-69
2022/12/02 03:53:04;;;;;;;56.27;23.40;;;4.60;68.80;;;;;;5067772;28;46438;-69
2022/12/02 03:55:30;;;;;;;53.73;22.77;;;4.60;68.90;;;;;;5068287;27;46337;-69
2022/12/02 03:58:06;;;;;;;49.73;23.30;;;4.60;68.80;;;;;;5067662;28;46457;-69
2022/12/02 04:00:35;;;;;;;55.97;21.60;;;4.60;69.00;;;;;;5053394;28;46398;-69
2022/12/02 04:03:01;;;;;;;62.87;22.63;;;4.60;69.20;;;;;;5069291;28;46666;-67
2022/12/02 04:05:27;;;;;;;49.10;22.30;;;4.50;68.20;;;;;;5070107;28;47930;-67
2022/12/02 04:07:53;;;;;;;46.33;21.57;;;4.50;69.20;;;;;;5069479;28;46697;-67
2022/12/02 04:10:19;;;;;;;59.27;23.33;;;4.60;69.20;;;;;;5064522;28;46793;-68
2022/12/02 04:12:44;;;;;;;47.67;21.77;;;4.60;68.90;;;;;;5064404;28;46479;-68
2022/12/02 04:15:10;;;;;;;49.30;23.10;;;4.60;69.00;;;;;;5072872;28;47995;-67
2022/12/02 04:17:36;;;;;;;53.90;22.30;;;4.60;69.20;;;;;;5076516;27;46424;-67
2022/12/02 04:20:04;;;;;;;55.90;24.98;;;4.50;69.30;;;;;;5067805;28;46453;-67
2022/12/02 04:22:30;;;;;;;63.30;25.40;;;4.60;69.20;;;;;;5079045;27;46664;-67
2022/12/02 04:24:59;;;;;;;47.17;22.10;;;4.60;69.00;;;;;;5065513;28;48266;-68
2022/12/02 04:27:28;;;;;;;61.55;22.95;;;4.60;68.80;;;;;;5071932;28;46456;-68
2022/12/02 04:29:54;;;;;;;67.70;27.37;;;4.60;68.80;;;;;;5065110;28;46414;-69
2022/12/02 04:32:19;;;;;;;65.23;27.87;;;4.60;69.10;;;;;;5069140;28;46377;-68
2022/12/02 04:34:45;;;;;;;136.83;59.43;;;4.70;69.20;;;;;;5066937;28;48059;-67
2022/12/02 04:37:11;;;;;;;56.13;25.10;;;5.10;69.30;;;;;;5066015;28;46375;-68
2022/12/02 04:39:36;;;;;;;62.00;26.80;;;5.00;68.80;;;;;;5069834;28;46321;-67
2022/12/02 04:42:02;;;;;;;70.17;29.60;;;5.00;68.90;;;;;;5069525;28;46667;-68
2022/12/02 04:44:28;;;;;;;62.43;27.17;;;5.00;69.10;;;;;;5062575;27;46592;-67
2022/12/02 04:46:54;;;;;;;55.50;25.50;;;5.00;69.40;;;;;;5067380;28;45931;-66
2022/12/02 04:49:20;;;;;;;58.27;26.60;;;5.00;69.40;;;;;;5068832;28;46422;-68
2022/12/02 04:51:45;;;;;;;64.10;26.60;;;5.00;69.50;;;;;;5068808;28;46581;-67
2022/12/02 04:54:11;;;;;;;85.83;36.40;;;5.20;68.70;;;;;;5066711;27;46954;-70
2022/12/02 04:56:37;;;;;;;147.93;59.97;;;5.30;69.60;;;;;;5070417;28;46464;-66
2022/12/02 04:59:02;;;;;;;76.93;31.50;;;5.40;69.40;;;;;;5065805;28;46513;-68
2022/12/02 05:01:28;;;;;;;60.37;25.93;;;5.60;69.30;;;;;;5070385;28;46558;-68
2022/12/02 05:03:54;;;;;;;46.00;21.87;;;5.20;68.70;;;;;;5066017;28;48898;-68
2022/12/02 05:06:19;;;;;;;59.00;25.67;;;5.20;69.80;;;;;;5067680;28;46408;-68
2022/12/02 05:08:45;;;;;;;63.00;27.70;;;5.10;70.00;;;;;;5065049;28;46555;-67
2022/12/02 05:11:11;;;;;;;54.30;23.53;;;5.10;70.00;;;;;;5064345;28;46438;-68
2022/12/02 05:13:37;;;;;;;60.63;23.87;;;5.00;68.80;;;;;;5068374;28;48355;-69
2022/12/02 05:16:02;;;;;;;75.00;30.53;;;5.00;69.80;;;;;;5061130;28;46658;-69
2022/12/02 05:18:28;;;;;;;62.80;29.00;;;5.10;69.80;;;;;;5065550;28;46427;-69
2022/12/02 05:20:54;;;;;;;55.53;24.13;;;5.10;69.90;;;;;;5066377;28;45903;-68
2022/12/02 05:23:19;;;;;;;64.80;28.00;;;5.00;69.90;;;;;;5066747;28;48165;-68
2022/12/02 05:25:45;;;;;;;63.67;26.10;;;5.00;68.80;;;;;;5070193;28;46527;-68
2022/12/02 05:28:11;;;;;;;55.70;24.60;;;5.00;70.00;;;;;;5067329;28;46499;-68
2022/12/02 05:30:36;;;;;;;55.97;26.43;;;5.00;69.90;;;;;;5069217;28;46622;-68
2022/12/02 05:33:02;;;;;;;69.87;30.43;;;5.00;69.90;;;;;;5064627;28;46405;-69
2022/12/02 05:35:28;;;;;;;55.63;23.40;;;5.00;68.80;;;;;;5069151;28;46621;-68
2022/12/02 05:37:53;;;;;;;50.70;23.13;;;5.00;69.80;;;;;;5069460;28;46521;-70
2022/12/02 05:40:19;;;;;;;50.47;24.00;;;5.00;69.90;;;;;;5066094;28;45877;-68
2022/12/02 05:42:45;;;;;;;56.22;27.13;;;5.00;69.90;;;;;;5066896;28;47802;-68
2022/12/02 05:45:29;;;;;;;58.13;25.83;;;4.80;69.20;;;;;;5071342;28;46066;-68
2022/12/02 05:47:54;;;;;;;58.93;25.57;;;4.80;70.60;;;;;;5067057;28;46348;-67
2022/12/02 05:50:21;;;;;;;63.03;26.77;;;4.80;70.60;;;;;;5068572;27;46353;-68
2022/12/02 05:52:50;;;;;;;55.97;22.70;;;4.90;70.50;;;;;;5067445;28;47690;-67
2022/12/02 05:55:18;;;;;;;57.47;25.70;;;4.90;70.30;;;;;;5065355;28;46238;-70
2022/12/02 05:57:44;;;;;;;55.70;21.00;;;5.00;70.30;;;;;;5065730;28;46423;-68
2022/12/02 06:00:13;;;;;;;44.50;20.70;;;4.90;70.50;;;;;;5067763;28;46373;-68
2022/12/02 06:02:54;;;;;;;49.00;20.30;;;4.80;70.50;;;;;;5067298;28;47824;-68
2022/12/02 06:05:26;;;;;;;47.63;22.75;;;4.80;68.80;;;;;;5065229;28;46056;-68
2022/12/02 06:07:55;;;;;;;46.07;21.37;;;4.80;69.80;;;;;;5065021;28;46433;-67
2022/12/02 06:10:23;;;;;;;55.93;23.93;;;4.80;69.80;;;;;;5053980;28;46549;-67
2022/12/02 06:12:51;;;;;;;49.90;21.53;;;4.80;70.00;;;;;;5066192;28;48013;-67
2022/12/02 06:15:17;;;;;;;51.78;20.23;;;4.80;68.80;;;;;;5067358;28;46132;-69
2022/12/02 06:17:43;;;;;;;58.77;24.73;;;4.90;69.70;;;;;;5066787;28;46387;-69
2022/12/02 06:20:29;;;;;;;49.63;21.77;;;4.80;69.50;;;;;;5068440;28;46324;-68
2022/12/02 06:22:55;;;;;;;54.03;20.30;;;4.90;69.40;;;;;;5062632;28;48070;-67
2022/12/02 06:25:27;;;;;;;53.58;22.85;;;4.90;68.30;;;;;;5067202;28;45861;-68
2022/12/02 06:28:29;;;;;;;49.97;21.63;;;4.80;69.20;;;;;;5063274;28;46102;-68
2022/12/02 06:31:03;;;;;;;51.07;21.70;;;4.80;70.50;;;;;;5068531;27;46461;-68
2022/12/02 06:33:31;;;;;;;47.07;22.57;;;;;;;;;;5048381;28;46589;-69
2022/12/02 06:36:00;;;;;;;48.33;23.20;;;4.70;68.40;;;;;;5066180;28;46495;-68
2022/12/02 06:38:33;;;;;;;51.67;23.95;;;4.80;69.60;;;;;;5049117;28;46354;-68
2022/12/02 06:41:01;;;;;;;54.37;22.73;;;4.40;69.00;;;;;;5068584;28;46302;-69
2022/12/02 06:43:30;;;;;;;55.43;23.10;;;4.90;69.50;;;;;;5061911;28;47992;-67
2022/12/02 06:45:57;;;;;;;56.70;22.27;;;4.90;69.70;;;;;;5063461;28;46430;-69
2022/12/02 06:48:30;;;;;;;58.67;23.83;;;4.90;69.60;;;;;;5066381;28;46353;-68
2022/12/02 06:51:11;;;;;;;48.73;21.20;;;4.90;69.40;;;;;;5064316;28;46423;-68
2022/12/02 06:53:39;;;;;;;52.23;20.90;;;4.90;68.30;;;;;;5064800;28;48074;-67
2022/12/02 06:56:26;;;;;;;53.80;22.60;;;4.80;69.30;;;;;;5062515;28;46472;-67
2022/12/02 06:59:01;;;;;;;49.75;21.70;;;4.90;69.40;;;;;;5056595;28;46481;-66
2022/12/02 07:01:27;;;;;;;48.30;22.47;;;4.90;69.30;;;;;;5050379;28;46466;-67
2022/12/02 07:04:04;;;;;;;50.30;22.03;;;4.90;68.20;;;;;;5048903;28;46560;-70
2022/12/02 07:06:30;;;;;;;53.80;23.40;;;4.90;69.20;;;;;;5049921;28;46664;-66
2022/12/02 07:08:59;;;;;;;51.77;22.77;;;4.90;69.30;;;;;;5063946;28;46447;-67
2022/12/02 07:11:52;;;;;;;51.90;22.23;;;4.90;69.50;;;;;;5064191;28;46531;-67
2022/12/02 07:14:44;;;;;;;51.13;21.80;;;5.00;69.40;;;;;;5065430;28;48293;-68
2022/12/02 07:17:13;;;;;;;56.03;23.00;;;5.00;69.30;;;;;;5053505;28;46402;-70
2022/12/02 07:19:43;;;;;;;53.47;23.27;;;5.00;69.10;;;;;;5065030;28;46390;-68
2022/12/02 07:22:21;;;;;;;51.10;23.00;;;5.00;69.20;;;;;;5066095;28;46455;-68
2022/12/02 07:25:06;;;;;;;49.20;22.07;;;4.90;68.20;;;;;;5069173;27;48182;-68
2022/12/02 07:27:41;;;;;;;51.35;22.55;;;4.80;69.10;;;;;;5060869;28;46202;-67
2022/12/02 07:30:38;;;;;;;50.97;23.43;;;4.80;69.10;;;;;;5063816;28;46224;-67
2022/12/02 07:33:04;;;;;;;54.50;22.80;;;4.70;69.40;;;;;;5064688;28;46559;-66
2022/12/02 07:35:30;;;;;;;53.60;22.87;;;4.60;68.70;;;;;;5062899;28;48871;-67
2022/12/02 07:37:57;;;;;;;59.33;22.43;;;4.60;69.80;;;;;;5062612;28;46396;-67
2022/12/02 07:40:23;;;;;;;56.50;24.97;;;4.60;69.80;;;;;;5069548;28;45938;-69
2022/12/02 07:42:49;;;;;;;51.57;23.63;;;4.60;69.60;;;;;;5067060;28;45982;-67
2022/12/02 07:45:17;;;;;;;63.88;25.33;;;4.60;68.40;;;;;;5067327;28;46856;-67
2022/12/02 07:47:44;;;;;;;59.83;25.45;;;4.60;69.80;;;;;;5065063;28;46563;-67
2022/12/02 07:50:12;;;;;;;66.53;25.27;;;4.60;69.60;;;;;;5068688;28;46466;-67
2022/12/02 07:52:38;;;;;;;57.83;24.47;;;4.70;69.40;;;;;;5069526;28;46415;-68
2022/12/02 07:55:05;;;;;;;67.33;25.53;;;4.70;68.20;;;;;;5069612;28;47478;-69
2022/12/02 07:57:30;;;;;;;59.17;24.02;;;4.60;69.40;;;;;;5066032;28;46316;-69
2022/12/02 07:59:56;;;;;;;63.30;27.10;;;4.50;69.60;;;;;;5062799;28;46486;-67
2022/12/02 08:02:22;;;;;;;62.10;25.23;;;4.60;69.80;;;;;;5065419;28;46490;-69
2022/12/02 08:04:47;;;;;;;64.10;24.77;;;4.70;68.30;;;;;;5066834;28;48270;-67
2022/12/02 08:07:13;;;;;;;59.97;25.30;;;4.70;69.40;;;;;;5063040;28;46601;-68
2022/12/02 08:09:39;;;;;;;56.83;24.63;;;4.70;69.40;;;;;;5063228;28;46526;-70
2022/12/02 08:12:05;;;;;;;58.10;25.10;;;4.70;69.50;;;;;;5063524;28;46159;-69
2022/12/02 08:14:30;;;;;;;60.80;24.20;;;4.50;68.80;;;;;;5069484;28;48868;-67
2022/12/02 08:16:56;;;;;;;62.40;26.83;;;4.50;68.90;;;;;;5069959;28;46345;-67
2022/12/02 08:19:22;;;;;;;69.90;26.70;;;4.40;70.20;;;;;;5071288;28;46471;-70
2022/12/02 08:21:48;;;;;;;63.10;27.20;;;4.40;70.40;;;;;;5053716;28;46478;-68
2022/12/02 08:24:14;;;;;;;77.67;28.10;;;4.40;70.30;;;;;;5071120;28;46482;-68
2022/12/02 08:26:41;;;;;;;62.13;25.70;;;4.40;70.40;;;;;;5066492;28;46421;-68
2022/12/02 08:29:06;;;;;;;63.90;27.10;;;4.40;70.20;;;;;;5066929;28;45890;-68
2022/12/02 08:31:32;;;;;;;60.50;26.23;;;4.50;69.70;;;;;;5066778;28;46400;-67
2022/12/02 08:33:58;;;;;;;59.30;26.03;;;4.60;69.30;;;;;;5068917;28;47575;-69
2022/12/02 08:36:23;;;;;;;71.13;26.90;;;4.70;69.10;;;;;;5067044;28;46425;-67
2022/12/02 08:38:49;;;;;;;63.80;26.67;;;4.70;69.00;;;;;;5067784;28;46430;-67
2022/12/02 08:41:16;;;;;;;57.80;26.17;;;4.80;69.00;;;;;;5070602;28;46331;-67
2022/12/02 08:43:42;;;;;;;57.83;25.27;;;4.90;67.80;;;;;;5066189;28;48032;-70
2022/12/02 08:46:08;;;;;;;56.00;23.80;;;4.90;68.70;;;;;;5068774;28;46618;-69
2022/12/02 08:48:34;;;;;;;58.27;25.83;;;5.00;68.50;;;;;;5071651;27;46433;-68
2022/12/02 08:51:00;;;;;;;59.43;24.40;;;5.00;68.30;;;;;;5070590;28;46375;-68
2022/12/02 08:53:26;;;;;;;61.83;24.00;;;5.00;68.20;;;;;;5066144;28;48346;-67
2022/12/02 08:55:52;;;;;;;60.37;25.93;;;5.00;67.30;;;;;;5067061;28;45875;-70
2022/12/02 08:58:18;;;;;;;61.97;26.23;;;5.00;68.40;;;;;;5076249;28;46636;-67
2022/12/02 09:00:44;;;;;;;56.70;23.57;;;5.10;68.30;;;;;;5072955;28;46662;-68
2022/12/02 09:03:10;;;;;;;55.70;23.53;;;5.20;67.20;;;;;;5071451;28;48923;-68
2022/12/02 09:05:37;;;;;;;55.23;25.00;;;5.30;66.90;;;;;;5071952;28;46495;-66
2022/12/02 09:08:04;;;;;;;63.53;25.17;;;5.30;67.70;;;;;;5071160;28;46773;-67
2022/12/02 09:10:30;;;;;;;70.93;29.63;;;5.30;67.60;;;;;;5070415;28;46840;-66
2022/12/02 09:12:56;;;;;;;55.50;25.67;;;5.30;67.60;;;;;;5067852;27;47800;-68
2022/12/02 09:15:22;;;;;;;55.87;24.90;;;5.30;66.80;;;;;;5070055;28;46416;-70
2022/12/02 09:17:48;;;;;;;56.30;21.83;;;5.30;68.00;;;;;;5071216;28;46475;-68
2022/12/02 09:20:16;;;;;;;45.47;20.87;;;5.40;67.90;;;;;;5070313;28;46461;-67
2022/12/02 09:22:44;;;;;;;48.43;22.90;;;5.40;67.70;;;;;;5072078;28;46595;-68
2022/12/02 09:25:11;;;;;;;47.43;21.00;;;5.40;66.80;;;;;;5068418;27;46416;-68
2022/12/02 09:27:36;;;;;;;51.03;21.63;;;5.40;67.70;;;;;;5072659;28;46389;-70
2022/12/02 09:30:03;;;;;;;43.93;20.30;;;5.40;67.50;;;;;;5072391;28;46594;-67
2022/12/02 09:32:29;;;;;;;46.90;21.60;;;5.40;67.60;;;;;;5073459;28;47777;-68
2022/12/02 09:34:55;;;;;;;38.23;18.57;;;5.50;66.40;;;;;;5069640;28;46417;-70
2022/12/02 09:37:21;;;;;;;43.10;19.67;;;5.60;67.50;;;;;;5071419;27;46551;-68
2022/12/02 09:39:47;;;;;;;40.40;19.23;;;5.50;67.40;;;;;;5073734;28;46359;-67
2022/12/02 09:42:14;;;;;;;50.53;21.20;;;5.60;67.50;;;;;;5073457;28;47927;-69
2022/12/02 09:44:42;;;;;;;42.83;19.73;;;5.60;67.60;;;;;;5071950;28;46419;-69
2022/12/02 09:47:09;;;;;;;38.80;18.20;;;5.60;67.60;;;;;;5068785;28;45896;-69
2022/12/02 09:49:35;;;;;;;46.13;20.13;;;5.60;67.50;;;;;;5067604;28;46017;-70
2022/12/02 09:52:03;;;;;;;38.10;19.67;;;5.60;66.40;;;;;;5069061;28;46907;-68
2022/12/02 09:54:29;;;;;;;36.83;18.13;;;5.70;67.40;;;;;;5072788;28;46414;-68
2022/12/02 09:56:56;;;;;;;43.40;23.20;;;5.70;66.00;;;;;;5069281;28;46409;-67
2022/12/02 09:59:22;;;;;;;47.92;24.17;;;5.80;68.20;;;;;;5080968;27;46549;-67
2022/12/02 10:01:49;;;;;;;36.27;18.47;;;5.80;66.80;;;;;;5070214;28;46405;-67
2022/12/02 10:04:19;;;;;;;33.27;17.23;;;5.90;67.00;;;;;;5079379;27;46573;-70
2022/12/02 10:06:45;;;;;;;71.37;30.87;;;5.90;66.80;;;;;;5068240;28;46337;-68
2022/12/02 10:09:18;;;;;;;57.37;24.33;;;6.00;66.70;;;;;;5079575;27;46670;-69
2022/12/02 10:11:45;;;;;;;50.57;23.10;;;6.00;65.20;;;;;;5068947;28;48281;-68
2022/12/02 10:14:13;;;;;;;45.93;20.37;;;6.10;66.10;;;;;;5067133;28;46466;-68
2022/12/02 10:16:39;;;;;;;45.30;20.33;;;6.30;66.10;;;;;;5072397;28;46444;-68
2022/12/02 10:19:06;;;;;;;41.90;22.60;;;6.50;65.80;;;;;;5071197;28;46440;-67
2022/12/02 10:21:32;;;;;;;76.00;38.00;;;6.60;65.70;;;;;;5074658;28;49374;-69
2022/12/02 10:24:01;;;;;;;42.33;20.98;;;6.60;64.70;;;;;;5069798;28;46604;-67
2022/12/02 10:26:40;;;;;;;37.27;18.73;;;6.50;65.20;;;;;;5061485;28;46432;-68
2022/12/02 10:29:08;;;;;;;37.93;18.87;;;6.50;65.10;;;;;;5070468;28;46573;-68
2022/12/02 10:31:35;;;;;;;36.27;17.43;;;6.40;65.20;;;;;;5070409;28;48730;-69
2022/12/02 10:34:06;;;;;;;35.47;17.40;;;6.40;65.30;;;;;;5067749;28;46417;-67
2022/12/02 10:36:39;;;;;;;37.13;17.30;;;6.40;65.20;;;;;;5070178;28;46409;-67
2022/12/02 10:39:29;;;;;;;32.50;17.10;;;6.40;64.90;;;;;;5068867;28;46650;-67
2022/12/02 10:42:06;;;;;;;63.93;29.23;;;6.30;65.10;;;;;;5066571;28;47999;-67
2022/12/02 10:44:34;;;;;;;46.13;22.00;;;6.30;65.10;;;;;;5070174;28;46392;-68
2022/12/02 10:47:11;;;;;;;36.58;18.77;;;6.40;65.10;;;;;;5071349;28;46370;-67
2022/12/02 10:49:37;;;;;;;36.47;16.90;;;6.30;64.70;;;;;;5062942;28;46440;-67
2022/12/02 10:52:13;;;;;;;42.33;19.40;;;6.20;64.60;;;;;;5071422;27;46494;-69
2022/12/02 10:54:44;;;;;;;46.93;20.90;;;6.20;64.50;;;;;;5068934;28;46263;-69
2022/12/02 10:57:15;;;;;;;37.50;17.87;;;6.10;64.70;;;;;;5068219;28;46393;-68
2022/12/02 10:59:41;;;;;;;37.53;17.30;;;6.10;64.60;;;;;;5062283;28;46398;-70
2022/12/02 11:02:19;;;;;;;34.17;16.63;;;6.30;64.70;;;;;;5070699;27;46393;-67
2022/12/02 11:04:45;;;;;;;32.50;17.00;;;6.10;63.10;;;;;;5065735;28;46485;-68
2022/12/02 11:07:14;;;;;;;35.37;17.40;;;6.10;64.20;;;;;;5059296;28;46586;-67
2022/12/02 11:09:44;;;;;;;32.20;16.40;;;6.10;64.30;;;;;;5065660;28;46434;-70
2022/12/02 11:12:47;;;;;;;32.17;17.13;;;6.00;64.30;;;;;;5070204;27;47948;-67
2022/12/02 11:15:52;;;;;;;30.83;15.70;;;6.00;64.00;;;;;;5070550;28;46463;-68
2022/12/02 11:18:23;;;;;;;37.50;17.43;;;6.10;64.00;;;;;;5050080;28;46354;-67
2022/12/02 11:20:54;;;;;;;35.83;18.23;;;6.10;64.00;;;;;;5064177;28;46412;-69
2022/12/02 11:23:27;;;;;;;33.23;17.60;;;6.10;63.90;;;;;;5066864;28;47872;-69
2022/12/02 11:26:03;;;;;;;32.77;17.67;;;6.10;64.00;;;;;;5068424;27;46422;-68
2022/12/02 11:28:28;;;;;;;36.17;19.23;;;6.10;64.00;;;;;;5067674;27;46517;-67
2022/12/02 11:31:09;;;;;;;39.00;19.00;;;6.10;63.90;;;;;;5065012;28;46053;-69
2022/12/02 11:33:47;;;;;;;38.70;19.50;;;6.00;63.20;;;;;;5067431;28;46260;-67
2022/12/02 11:36:16;;;;;;;42.50;21.10;;;6.00;64.20;;;;;;5067018;28;46760;-67
2022/12/02 11:38:46;;;;;;;30.93;16.93;;;6.00;64.40;;;;;;5064336;28;46552;-68
2022/12/02 11:41:12;;;;;;;39.20;19.33;;;5.90;64.30;;;;;;5065712;28;46396;-69
2022/12/02 11:43:44;;;;;;;69.13;35.60;;;5.90;64.50;;;;;;5063703;28;47904;-67
2022/12/02 11:46:15;;;;;;;37.97;19.97;;;6.00;64.70;;;;;;5062023;28;46357;-68
2022/12/02 11:48:53;;;;;;;34.90;15.87;;;6.00;64.50;;;;;;5070015;27;45965;-69
2022/12/02 11:51:28;;;;;;;33.50;17.60;;;5.90;64.40;;;;;;5054879;28;46471;-67
2022/12/02 11:53:54;;;;;;;41.60;17.60;;;5.90;64.30;;;;;;5067690;28;46632;-69
2022/12/02 11:56:20;;;;;;;38.07;18.10;;;5.90;64.50;;;;;;5064318;27;46431;-69
2022/12/02 11:58:46;;;;;;;38.87;16.93;;;5.80;64.30;;;;;;5066300;28;45892;-68
2022/12/02 12:01:11;;;;;;;33.73;17.70;;;5.80;64.30;;;;;;5067572;28;46581;-69
2022/12/02 12:03:50;;;;;;;39.03;21.48;;;5.90;62.60;;;;;;5065013;28;47876;-69
2022/12/02 12:06:18;;;;;;;34.43;18.47;;;5.90;63.60;;;;;;5068083;28;45942;-67
2022/12/02 12:08:55;;;;;;;34.27;17.00;;;5.90;63.70;;;;;;5069998;28;46430;-69
2022/12/02 12:11:35;;;;;;;38.03;17.40;;;5.90;63.70;;;;;;5073233;28;46609;-68
2022/12/02 12:14:22;;;;;;;29.30;15.90;;;5.90;63.70;;;;;;5064676;28;48789;-70
2022/12/02 12:16:49;;;;;;;30.60;15.53;;;5.90;63.70;;;;;;5051774;28;46593;-68
2022/12/02 12:19:15;;;;;;;30.23;15.63;;;6.00;63.60;;;;;;5049579;28;46303;-68
2022/12/02 12:21:45;;;;;;;34.03;17.47;;;6.10;63.20;;;;;;5070528;28;46343;-68
2022/12/02 12:24:17;;;;;;;30.30;15.70;;;6.10;62.90;;;;;;5069553;28;47996;-68
2022/12/02 12:26:57;;;;;;;33.73;16.53;;;6.00;62.70;;;;;;5068173;28;46350;-69
2022/12/02 12:29:26;;;;;;;35.70;17.57;;;6.10;62.70;;;;;;5071534;28;45987;-67
2022/12/02 12:31:52;;;;;;;31.43;14.97;;;6.00;62.70;;;;;;5052273;28;46623;-67
2022/12/02 12:34:18;;;;;;;32.60;14.70;;;6.10;62.70;;;;;;5069568;28;48679;-68
2022/12/02 12:36:45;;;;;;;30.53;16.40;;;6.20;62.60;;;;;;5074136;28;46006;-68
2022/12/02 12:39:11;;;;;;;31.80;16.53;;;6.30;62.20;;;;;;5065067;28;46477;-69
2022/12/02 12:41:37;;;;;;;33.47;15.47;;;6.30;62.20;;;;;;5054985;28;46479;-68
2022/12/02 12:44:04;;;;;;;28.13;15.20;;;6.40;62.30;;;;;;5066572;28;48844;-68
2022/12/02 12:46:30;;;;;;;29.73;15.07;;;6.40;62.20;;;;;;5051422;28;45893;-68
2022/12/02 12:48:56;;;;;;;32.73;15.47;;;6.50;61.70;;;;;;5067560;28;46439;-68